createdAt,value
2017-03-05T00:00:00.025Z,21.31
2017-03-05T00:00:28.090Z,21.37
2017-03-05T00:00:56.166Z,21.36
2017-03-05T00:01:24.356Z,21.4
2017-03-05T00:01:52.672Z,21.38
2017-03-05T00:02:20.799Z,21.36
2017-03-05T00:02:48.949Z,21.37
2017-03-05T00:03:17.057Z,21.4
2017-03-05T00:03:45.282Z,21.38
2017-03-05T00:04:13.388Z,21.37
2017-03-05T00:04:41.580Z,21.33
2017-03-05T00:05:09.846Z,21.38
2017-03-05T00:05:38.130Z,21.38
2017-03-05T00:06:06.362Z,21.41
2017-03-05T00:06:34.364Z,21.38
2017-03-05T00:07:02.544Z,21.43
2017-03-05T00:07:31.303Z,21.46
2017-03-05T00:07:59.704Z,21.51
2017-03-05T00:08:27.707Z,21.49
2017-03-05T00:08:55.827Z,21.52
2017-03-05T00:09:24.008Z,21.56
2017-03-05T00:09:52.091Z,21.61
2017-03-05T00:10:20.157Z,21.58
2017-03-05T00:10:48.250Z,21.51
2017-03-05T00:11:16.437Z,21.61
2017-03-05T00:11:44.569Z,21.55
2017-03-05T00:12:12.697Z,21.56
2017-03-05T00:12:40.992Z,21.53
2017-03-05T00:13:09.245Z,21.58
2017-03-05T00:13:37.453Z,21.59
2017-03-05T00:14:05.584Z,21.59
2017-03-05T00:14:33.742Z,21.64
2017-03-05T00:15:01.805Z,21.68
2017-03-05T00:15:30.064Z,21.73
2017-03-05T00:15:58.235Z,21.7
2017-03-05T00:16:26.478Z,21.76
2017-03-05T00:16:54.728Z,21.78
2017-03-05T00:17:22.850Z,21.7
2017-03-05T00:17:51.227Z,21.67
2017-03-05T00:18:19.647Z,21.7
2017-03-05T00:18:47.815Z,21.68
2017-03-05T00:19:15.974Z,21.78
2017-03-05T00:19:44.179Z,21.78
2017-03-05T00:20:12.513Z,21.77
2017-03-05T00:20:40.790Z,21.82
2017-03-05T00:21:09.052Z,21.78
2017-03-05T00:21:37.369Z,21.86
2017-03-05T00:22:05.520Z,21.83
2017-03-05T00:22:33.746Z,21.77
2017-03-05T00:23:01.929Z,21.8
2017-03-05T00:23:30.189Z,21.86
2017-03-05T00:23:58.387Z,21.73
2017-03-05T00:24:26.603Z,21.85
2017-03-05T00:24:54.809Z,21.77
2017-03-05T00:25:23.047Z,21.8
2017-03-05T00:25:51.335Z,21.82
2017-03-05T00:26:19.530Z,21.78
2017-03-05T00:26:47.699Z,21.85
2017-03-05T00:27:15.788Z,21.71
2017-03-05T00:27:43.863Z,21.82
2017-03-05T00:28:12.191Z,21.68
2017-03-05T00:28:40.385Z,21.77
2017-03-05T00:29:08.521Z,21.82
2017-03-05T00:29:36.616Z,21.86
2017-03-05T00:30:04.791Z,21.76
2017-03-05T00:30:32.935Z,21.83
2017-03-05T00:31:01.148Z,21.83
2017-03-05T00:31:29.304Z,21.77
2017-03-05T00:31:57.398Z,21.7
2017-03-05T00:32:25.622Z,21.8
2017-03-05T00:32:53.853Z,21.8
2017-03-05T00:33:21.963Z,21.82
2017-03-05T00:33:50.085Z,21.85
2017-03-05T00:34:18.320Z,21.9
2017-03-05T00:34:46.498Z,21.85
2017-03-05T00:35:14.538Z,21.94
2017-03-05T00:35:42.813Z,21.97
2017-03-05T00:36:11.054Z,22.04
2017-03-05T00:36:39.148Z,22.04
2017-03-05T00:37:07.151Z,22.15
2017-03-05T00:37:35.320Z,22.14
2017-03-05T00:38:03.554Z,22.24
2017-03-05T00:38:31.884Z,22.26
2017-03-05T00:38:59.912Z,22.27
2017-03-05T00:39:28.049Z,22.34
2017-03-05T00:39:56.184Z,22.39
2017-03-05T00:40:24.446Z,22.26
2017-03-05T00:40:52.451Z,22.34
2017-03-05T00:41:20.647Z,22.36
2017-03-05T00:41:48.825Z,22.33
2017-03-05T00:42:16.859Z,22.39
2017-03-05T00:42:45.038Z,22.39
2017-03-05T00:43:13.355Z,22.41
2017-03-05T00:43:41.340Z,22.48
2017-03-05T00:44:09.512Z,22.36
2017-03-05T00:44:37.734Z,22.51
2017-03-05T00:45:05.913Z,22.46
2017-03-05T00:45:34.058Z,22.39
2017-03-05T00:46:02.241Z,22.42
2017-03-05T00:46:30.313Z,22.44
2017-03-05T00:46:58.507Z,22.42
2017-03-05T00:47:26.636Z,22.49
2017-03-05T00:47:54.891Z,22.48
2017-03-05T00:48:23.150Z,22.41
2017-03-05T00:48:51.360Z,22.46
2017-03-05T00:49:19.652Z,22.49
2017-03-05T00:49:47.922Z,22.46
2017-03-05T00:50:16.046Z,22.46
2017-03-05T00:50:44.318Z,22.45
2017-03-05T00:51:12.540Z,22.46
2017-03-05T00:51:40.705Z,22.48
2017-03-05T00:52:08.802Z,22.46
2017-03-05T00:52:37.134Z,22.54
2017-03-05T00:53:05.336Z,22.45
2017-03-05T00:53:33.407Z,22.51
2017-03-05T00:54:01.395Z,22.55
2017-03-05T00:54:29.446Z,22.46
2017-03-05T00:54:57.578Z,22.51
2017-03-05T00:55:25.739Z,22.49
2017-03-05T00:55:53.996Z,22.44
2017-03-05T00:56:22.101Z,22.46
2017-03-05T00:56:50.274Z,22.59
2017-03-05T00:57:18.366Z,22.48
2017-03-05T00:57:46.528Z,22.55
2017-03-05T00:58:14.826Z,22.52
2017-03-05T00:58:43.081Z,22.49
2017-03-05T00:59:11.205Z,22.57
2017-03-05T00:59:39.397Z,22.51
2017-03-05T01:00:07.693Z,22.49
2017-03-05T01:00:35.820Z,22.52
2017-03-05T01:01:04.006Z,22.51
2017-03-05T01:01:32.288Z,22.49
2017-03-05T01:02:00.480Z,22.54
2017-03-05T01:02:28.638Z,22.48
2017-03-05T01:02:57.032Z,22.48
2017-03-05T01:03:25.325Z,22.54
2017-03-05T01:03:53.530Z,22.42
2017-03-05T01:04:21.651Z,22.52
2017-03-05T01:04:49.784Z,22.45
2017-03-05T01:05:17.775Z,22.49
2017-03-05T01:05:45.944Z,22.48
2017-03-05T01:06:14.001Z,22.52
2017-03-05T01:06:42.197Z,22.57
2017-03-05T01:07:10.411Z,22.41
2017-03-05T01:07:38.536Z,22.45
2017-03-05T01:08:06.699Z,22.51
2017-03-05T01:08:35.064Z,22.45
2017-03-05T01:09:03.183Z,22.45
2017-03-05T01:09:31.418Z,22.44
2017-03-05T01:09:59.602Z,22.48
2017-03-05T01:10:27.713Z,22.49
2017-03-05T01:10:55.787Z,22.48
2017-03-05T01:11:23.957Z,22.48
2017-03-05T01:11:52.143Z,22.44
2017-03-05T01:12:20.367Z,22.51
2017-03-05T01:12:48.479Z,22.48
2017-03-05T01:13:16.923Z,22.51
2017-03-05T01:13:45.227Z,22.38
2017-03-05T01:14:13.532Z,22.55
2017-03-05T01:14:41.714Z,22.51
2017-03-05T01:15:10.033Z,22.45
2017-03-05T01:15:38.164Z,22.51
2017-03-05T01:16:06.476Z,22.44
2017-03-05T01:16:34.716Z,22.51
2017-03-05T01:17:02.883Z,22.45
2017-03-05T01:17:30.996Z,22.45
2017-03-05T01:17:59.305Z,22.45
2017-03-05T01:18:27.386Z,22.48
2017-03-05T01:18:55.536Z,22.45
2017-03-05T01:19:23.680Z,22.54
2017-03-05T01:19:51.865Z,22.49
2017-03-05T01:20:20.019Z,22.48
2017-03-05T01:20:48.300Z,22.48
2017-03-05T01:21:16.499Z,22.45
2017-03-05T01:21:44.575Z,22.46
2017-03-05T01:22:13.013Z,22.44
2017-03-05T01:22:41.251Z,22.49
2017-03-05T01:23:09.446Z,22.48
2017-03-05T01:23:37.669Z,22.48
2017-03-05T01:24:05.974Z,22.48
2017-03-05T01:24:34.205Z,22.45
2017-03-05T01:25:02.463Z,22.46
2017-03-05T01:25:30.450Z,22.51
2017-03-05T01:25:58.566Z,22.48
2017-03-05T01:26:26.803Z,22.48
2017-03-05T01:26:54.934Z,22.44
2017-03-05T01:27:22.994Z,22.49
2017-03-05T01:27:51.258Z,22.48
2017-03-05T01:28:19.570Z,22.46
2017-03-05T01:28:47.671Z,22.51
2017-03-05T01:29:15.868Z,22.44
2017-03-05T01:29:44.102Z,22.48
2017-03-05T01:30:13.072Z,22.31
2017-03-05T01:30:41.243Z,22.49
2017-03-05T01:31:09.417Z,22.52
2017-03-05T01:31:37.688Z,22.51
2017-03-05T01:32:05.976Z,22.51
2017-03-05T01:32:34.268Z,22.54
2017-03-05T01:33:02.519Z,22.46
2017-03-05T01:33:30.727Z,22.46
2017-03-05T01:33:58.999Z,22.45
2017-03-05T01:34:27.046Z,22.51
2017-03-05T01:34:55.320Z,22.44
2017-03-05T01:35:23.510Z,22.51
2017-03-05T01:35:51.671Z,22.39
2017-03-05T01:36:19.959Z,22.39
2017-03-05T01:36:48.137Z,22.51
2017-03-05T01:37:16.347Z,22.39
2017-03-05T01:37:44.657Z,22.44
2017-03-05T01:38:12.778Z,22.57
2017-03-05T01:38:40.962Z,22.45
2017-03-05T01:39:09.087Z,22.49
2017-03-05T01:39:37.329Z,22.48
2017-03-05T01:40:05.402Z,22.49
2017-03-05T01:40:33.588Z,22.46
2017-03-05T01:41:01.774Z,22.45
2017-03-05T01:41:29.985Z,22.45
2017-03-05T01:41:58.176Z,22.46
2017-03-05T01:42:26.292Z,22.51
2017-03-05T01:42:54.566Z,22.44
2017-03-05T01:43:22.845Z,22.48
2017-03-05T01:43:51.064Z,22.48
2017-03-05T01:44:19.398Z,22.46
2017-03-05T01:44:47.665Z,22.54
2017-03-05T01:45:15.813Z,22.48
2017-03-05T01:45:44.043Z,22.48
2017-03-05T01:46:12.298Z,22.44
2017-03-05T01:46:40.381Z,22.46
2017-03-05T01:47:08.537Z,22.54
2017-03-05T01:47:36.782Z,22.45
2017-03-05T01:48:04.899Z,22.54
2017-03-05T01:48:33.351Z,22.49
2017-03-05T01:49:01.428Z,22.41
2017-03-05T01:49:29.708Z,22.55
2017-03-05T01:49:57.942Z,22.52
2017-03-05T01:50:26.262Z,22.49
2017-03-05T01:50:54.533Z,22.45
2017-03-05T01:51:22.551Z,22.52
2017-03-05T01:51:50.690Z,22.6
2017-03-05T01:52:18.850Z,22.46
2017-03-05T01:52:47.097Z,22.39
2017-03-05T01:53:15.207Z,22.49
2017-03-05T01:53:43.392Z,22.48
2017-03-05T01:54:11.485Z,22.51
2017-03-05T01:54:39.591Z,22.51
2017-03-05T01:55:07.846Z,22.52
2017-03-05T01:55:36.061Z,22.49
2017-03-05T01:56:04.057Z,22.57
2017-03-05T01:56:32.252Z,22.51
2017-03-05T01:57:00.459Z,22.54
2017-03-05T01:57:28.675Z,22.51
2017-03-05T01:57:56.882Z,22.51
2017-03-05T01:58:25.083Z,22.55
2017-03-05T01:58:53.538Z,22.57
2017-03-05T01:59:21.692Z,22.46
2017-03-05T01:59:49.955Z,22.55
2017-03-05T02:00:18.169Z,22.51
2017-03-05T02:00:46.463Z,22.45
2017-03-05T02:01:14.701Z,22.54
2017-03-05T02:01:42.768Z,22.48
2017-03-05T02:02:10.816Z,22.49
2017-03-05T02:02:39.019Z,22.63
2017-03-05T02:03:07.226Z,22.46
2017-03-05T02:03:35.347Z,22.57
2017-03-05T02:04:03.517Z,22.51
2017-03-05T02:04:31.782Z,22.51
2017-03-05T02:05:00.062Z,22.49
2017-03-05T02:05:28.265Z,22.54
2017-03-05T02:05:56.417Z,22.52
2017-03-05T02:06:24.362Z,22.55
2017-03-05T02:06:52.443Z,22.49
2017-03-05T02:07:20.603Z,22.54
2017-03-05T02:07:48.782Z,22.51
2017-03-05T02:08:16.990Z,22.41
2017-03-05T02:08:45.307Z,22.52
2017-03-05T02:09:13.570Z,22.51
2017-03-05T02:09:41.656Z,22.57
2017-03-05T02:10:09.688Z,22.49
2017-03-05T02:10:37.801Z,22.46
2017-03-05T02:11:05.961Z,22.45
2017-03-05T02:11:34.905Z,22.52
2017-03-05T02:12:03.134Z,22.51
2017-03-05T02:12:31.281Z,22.42
2017-03-05T02:12:59.420Z,22.51
2017-03-05T02:13:27.611Z,22.46
2017-03-05T02:13:55.730Z,22.46
2017-03-05T02:14:23.807Z,22.52
2017-03-05T02:14:51.985Z,22.51
2017-03-05T02:15:20.108Z,22.55
2017-03-05T02:15:48.161Z,22.51
2017-03-05T02:16:16.240Z,22.46
2017-03-05T02:16:44.383Z,22.45
2017-03-05T02:17:12.363Z,22.52
2017-03-05T02:17:40.351Z,22.54
2017-03-05T02:18:08.490Z,22.52
2017-03-05T02:18:36.772Z,22.49
2017-03-05T02:19:04.899Z,22.49
2017-03-05T02:19:33.163Z,22.49
2017-03-05T02:20:01.256Z,22.51
2017-03-05T02:20:29.484Z,22.52
2017-03-05T02:20:57.707Z,22.54
2017-03-05T02:21:25.875Z,22.48
2017-03-05T02:21:54.075Z,22.48
2017-03-05T02:22:22.288Z,22.51
2017-03-05T02:22:50.549Z,22.57
2017-03-05T02:23:18.817Z,22.51
2017-03-05T02:23:47.173Z,22.51
2017-03-05T02:24:15.421Z,22.49
2017-03-05T02:24:43.850Z,22.54
2017-03-05T02:25:12.014Z,22.51
2017-03-05T02:25:40.274Z,22.49
2017-03-05T02:26:08.502Z,22.57
2017-03-05T02:26:36.596Z,22.52
2017-03-05T02:27:04.591Z,22.55
2017-03-05T02:27:32.684Z,22.6
2017-03-05T02:28:00.941Z,22.55
2017-03-05T02:28:29.041Z,22.6
2017-03-05T02:28:57.376Z,22.57
2017-03-05T02:29:25.481Z,22.52
2017-03-05T02:29:53.630Z,22.52
2017-03-05T02:30:21.880Z,22.49
2017-03-05T02:30:50.127Z,22.51
2017-03-05T02:31:18.186Z,22.49
2017-03-05T02:31:46.368Z,22.6
2017-03-05T02:32:14.531Z,22.54
2017-03-05T02:32:42.489Z,22.52
2017-03-05T02:33:10.594Z,22.52
2017-03-05T02:33:38.872Z,22.55
2017-03-05T02:34:07.024Z,22.54
2017-03-05T02:34:35.214Z,22.49
2017-03-05T02:35:03.482Z,22.55
2017-03-05T02:35:31.575Z,22.51
2017-03-05T02:35:59.632Z,22.49
2017-03-05T02:36:27.684Z,22.52
2017-03-05T02:36:55.605Z,22.54
2017-03-05T02:37:23.785Z,22.61
2017-03-05T02:37:51.974Z,22.51
2017-03-05T02:38:20.095Z,22.55
2017-03-05T02:38:48.381Z,22.57
2017-03-05T02:39:16.451Z,22.61
2017-03-05T02:39:44.803Z,22.55
2017-03-05T02:40:13.097Z,22.59
2017-03-05T02:40:41.303Z,22.59
2017-03-05T02:41:09.518Z,22.61
2017-03-05T02:41:37.645Z,22.61
2017-03-05T02:42:05.931Z,22.54
2017-03-05T02:42:34.019Z,22.6
2017-03-05T02:43:02.211Z,22.52
2017-03-05T02:43:30.482Z,22.59
2017-03-05T02:43:58.659Z,22.57
2017-03-05T02:44:26.950Z,22.61
2017-03-05T02:44:55.154Z,22.6
2017-03-05T02:45:23.199Z,22.54
2017-03-05T02:45:51.454Z,22.61
2017-03-05T02:46:19.642Z,22.6
2017-03-05T02:46:47.822Z,22.61
2017-03-05T02:47:15.939Z,22.63
2017-03-05T02:47:44.618Z,22.61
2017-03-05T02:48:12.731Z,22.61
2017-03-05T02:48:40.948Z,22.64
2017-03-05T02:49:09.118Z,22.57
2017-03-05T02:49:37.326Z,22.57
2017-03-05T02:50:05.460Z,22.61
2017-03-05T02:50:33.685Z,22.66
2017-03-05T02:51:01.772Z,22.59
2017-03-05T02:51:30.088Z,22.63
2017-03-05T02:51:58.370Z,22.64
2017-03-05T02:52:26.647Z,22.63
2017-03-05T02:52:54.922Z,22.67
2017-03-05T02:53:23.207Z,22.59
2017-03-05T02:53:51.486Z,22.64
2017-03-05T02:54:19.737Z,22.57
2017-03-05T02:54:47.934Z,22.57
2017-03-05T02:55:16.206Z,22.64
2017-03-05T02:55:44.471Z,22.61
2017-03-05T02:56:12.408Z,22.63
2017-03-05T02:56:40.484Z,22.6
2017-03-05T02:57:08.599Z,22.63
2017-03-05T02:57:36.744Z,22.6
2017-03-05T02:58:04.924Z,22.54
2017-03-05T03:01:30.266Z,22.63
2017-03-05T03:01:58.429Z,22.6
2017-03-05T03:02:26.650Z,22.49
2017-03-05T03:02:54.864Z,22.55
2017-03-05T03:03:23.198Z,22.55
2017-03-05T03:03:51.347Z,22.54
2017-03-05T03:04:19.510Z,22.57
2017-03-05T03:04:47.786Z,22.52
2017-03-05T03:05:16.158Z,22.55
2017-03-05T03:05:44.398Z,22.49
2017-03-05T03:06:12.603Z,22.51
2017-03-05T03:06:40.889Z,22.59
2017-03-05T03:07:09.136Z,22.52
2017-03-05T03:07:37.255Z,22.54
2017-03-05T03:08:05.463Z,22.55
2017-03-05T03:08:33.684Z,22.57
2017-03-05T03:09:01.976Z,22.54
2017-03-05T03:09:30.211Z,22.52
2017-03-05T03:09:58.535Z,22.49
2017-03-05T03:10:26.657Z,22.46
2017-03-05T03:10:54.842Z,22.54
2017-03-05T03:11:23.140Z,22.46
2017-03-05T03:11:51.332Z,22.44
2017-03-05T03:12:19.569Z,22.42
2017-03-05T03:12:47.787Z,22.52
2017-03-05T03:13:15.981Z,22.52
2017-03-05T03:13:44.241Z,22.54
2017-03-05T03:14:12.291Z,22.54
2017-03-05T03:14:40.489Z,22.48
2017-03-05T03:15:08.805Z,22.55
2017-03-05T03:15:37.034Z,22.46
2017-03-05T03:16:05.040Z,22.45
2017-03-05T03:16:33.237Z,22.44
2017-03-05T03:17:01.477Z,22.44
2017-03-05T03:17:29.598Z,22.46
2017-03-05T03:17:57.513Z,22.41
2017-03-05T03:18:25.684Z,22.54
2017-03-05T03:18:53.767Z,22.52
2017-03-05T03:19:22.385Z,22.49
2017-03-05T03:19:50.608Z,22.55
2017-03-05T03:20:18.856Z,22.57
2017-03-05T03:20:47.104Z,22.54
2017-03-05T03:21:15.325Z,22.59
2017-03-05T03:21:43.519Z,22.54
2017-03-05T03:22:11.809Z,22.51
2017-03-05T03:22:40.030Z,22.54
2017-03-05T03:23:08.183Z,22.54
2017-03-05T03:23:36.443Z,22.55
2017-03-05T03:24:04.626Z,22.49
2017-03-05T03:24:32.737Z,22.54
2017-03-05T03:25:00.856Z,22.45
2017-03-05T03:25:28.981Z,22.52
2017-03-05T03:25:57.176Z,22.54
2017-03-05T03:26:25.379Z,22.51
2017-03-05T03:26:53.676Z,22.57
2017-03-05T03:27:21.747Z,22.54
2017-03-05T03:27:49.827Z,22.49
2017-03-05T03:28:17.950Z,22.52
2017-03-05T03:28:46.022Z,22.54
2017-03-05T03:29:14.087Z,22.57
2017-03-05T03:29:42.244Z,22.46
2017-03-05T03:30:10.346Z,22.54
2017-03-05T03:30:38.567Z,22.49
2017-03-05T03:31:06.648Z,22.54
2017-03-05T03:31:34.845Z,22.51
2017-03-05T03:32:02.959Z,22.52
2017-03-05T03:32:31.153Z,22.49
2017-03-05T03:32:59.453Z,22.48
2017-03-05T03:33:27.719Z,22.45
2017-03-05T03:33:55.901Z,22.46
2017-03-05T03:34:24.199Z,22.49
2017-03-05T03:34:52.510Z,22.59
2017-03-05T03:35:20.803Z,22.59
2017-03-05T03:35:49.044Z,22.52
2017-03-05T03:36:17.287Z,22.45
2017-03-05T03:36:45.381Z,22.46
2017-03-05T03:37:13.610Z,22.54
2017-03-05T03:37:41.774Z,22.46
2017-03-05T03:38:09.929Z,22.46
2017-03-05T03:38:38.089Z,22.49
2017-03-05T03:39:06.079Z,22.54
2017-03-05T03:39:34.155Z,22.46
2017-03-05T03:40:02.384Z,22.55
2017-03-05T03:40:30.612Z,22.51
2017-03-05T03:40:58.821Z,22.51
2017-03-05T03:41:26.839Z,22.45
2017-03-05T03:41:54.914Z,22.52
2017-03-05T03:42:22.936Z,22.55
2017-03-05T03:42:51.038Z,22.54
2017-03-05T03:43:19.140Z,22.59
2017-03-05T03:43:47.337Z,22.57
2017-03-05T03:44:15.381Z,22.52
2017-03-05T03:44:43.408Z,22.54
2017-03-05T03:45:11.590Z,22.57
2017-03-05T03:45:39.879Z,22.46
2017-03-05T03:46:07.922Z,22.49
2017-03-05T03:46:36.180Z,22.46
2017-03-05T03:47:04.229Z,22.52
2017-03-05T03:47:32.370Z,22.45
2017-03-05T03:48:00.465Z,22.44
2017-03-05T03:48:28.624Z,22.46
2017-03-05T03:48:56.781Z,22.45
2017-03-05T03:49:24.848Z,22.48
2017-03-05T03:49:52.986Z,22.49
2017-03-05T03:50:21.032Z,22.49
2017-03-05T03:50:49.217Z,22.46
2017-03-05T03:51:17.343Z,22.46
2017-03-05T03:51:45.560Z,22.46
2017-03-05T03:52:13.553Z,22.39
2017-03-05T03:52:41.667Z,22.52
2017-03-05T03:53:09.922Z,22.49
2017-03-05T03:53:38.092Z,22.39
2017-03-05T03:54:06.133Z,22.54
2017-03-05T03:54:34.318Z,22.44
2017-03-05T03:55:02.612Z,22.45
2017-03-05T03:55:30.779Z,22.36
2017-03-05T03:55:59.029Z,22.49
2017-03-05T03:56:27.235Z,22.51
2017-03-05T03:56:55.409Z,22.55
2017-03-05T03:57:23.663Z,22.51
2017-03-05T03:57:51.914Z,22.49
2017-03-05T03:58:20.057Z,22.44
2017-03-05T03:58:48.278Z,22.39
2017-03-05T03:59:16.530Z,22.51
2017-03-05T03:59:44.673Z,22.55
2017-03-05T04:00:12.759Z,22.54
2017-03-05T04:00:40.931Z,22.49
2017-03-05T04:01:09.104Z,22.51
2017-03-05T04:01:37.231Z,22.54
2017-03-05T04:02:05.550Z,22.51
2017-03-05T04:02:33.711Z,22.48
2017-03-05T04:03:01.967Z,22.51
2017-03-05T04:03:30.120Z,22.34
2017-03-05T04:03:58.344Z,22.38
2017-03-05T04:04:26.413Z,22.38
2017-03-05T04:04:54.668Z,22.39
2017-03-05T04:05:22.855Z,22.42
2017-03-05T04:05:50.967Z,22.41
2017-03-05T04:06:19.139Z,22.46
2017-03-05T04:06:47.416Z,22.39
2017-03-05T04:07:15.611Z,22.38
2017-03-05T04:07:43.760Z,22.44
2017-03-05T04:08:11.952Z,22.34
2017-03-05T04:08:40.192Z,22.42
2017-03-05T04:09:08.414Z,22.44
2017-03-05T04:09:36.717Z,22.31
2017-03-05T04:10:04.878Z,22.38
2017-03-05T04:10:33.131Z,22.36
2017-03-05T04:11:01.413Z,22.29
2017-03-05T04:11:29.427Z,22.26
2017-03-05T04:11:57.496Z,22.22
2017-03-05T04:12:25.643Z,22.33
2017-03-05T04:12:53.870Z,22.23
2017-03-05T04:13:22.046Z,22.29
2017-03-05T04:13:50.280Z,22.34
2017-03-05T04:14:18.266Z,22.26
2017-03-05T04:14:46.539Z,22.23
2017-03-05T04:15:14.796Z,22.18
2017-03-05T04:15:43.249Z,22.24
2017-03-05T04:16:11.342Z,22.26
2017-03-05T04:16:39.366Z,22.26
2017-03-05T04:17:07.483Z,22.31
2017-03-05T04:17:35.810Z,22.33
2017-03-05T04:18:04.307Z,22.23
2017-03-05T04:18:32.563Z,22.23
2017-03-05T04:19:00.664Z,22.34
2017-03-05T04:19:28.830Z,22.27
2017-03-05T04:19:57.014Z,22.34
2017-03-05T04:20:25.165Z,22.18
2017-03-05T04:20:53.561Z,22.31
2017-03-05T04:21:21.675Z,22.27
2017-03-05T04:21:49.860Z,22.29
2017-03-05T04:22:18.016Z,22.24
2017-03-05T04:22:46.093Z,22.26
2017-03-05T04:23:14.275Z,22.29
2017-03-05T04:23:42.371Z,22.34
2017-03-05T04:24:10.482Z,22.3
2017-03-05T04:24:38.647Z,22.26
2017-03-05T04:25:06.766Z,22.29
2017-03-05T04:25:34.913Z,22.23
2017-03-05T04:26:03.163Z,22.34
2017-03-05T04:26:31.240Z,22.23
2017-03-05T04:26:59.479Z,22.26
2017-03-05T04:27:27.668Z,22.34
2017-03-05T04:27:55.647Z,22.23
2017-03-05T04:28:23.684Z,22.29
2017-03-05T04:28:51.650Z,22.2
2017-03-05T04:29:19.840Z,22.24
2017-03-05T04:29:47.924Z,22.24
2017-03-05T04:30:16.124Z,22.24
2017-03-05T04:30:44.354Z,22.26
2017-03-05T04:31:12.640Z,22.23
2017-03-05T04:31:40.819Z,22.18
2017-03-05T04:32:09.004Z,22.27
2017-03-05T04:32:37.119Z,22.18
2017-03-05T04:33:05.212Z,22.22
2017-03-05T04:33:33.323Z,22.2
2017-03-05T04:34:01.568Z,22.26
2017-03-05T04:34:29.724Z,22.18
2017-03-05T04:34:57.958Z,22.23
2017-03-05T04:35:26.162Z,22.27
2017-03-05T04:35:54.478Z,22.24
2017-03-05T04:36:22.777Z,22.22
2017-03-05T04:36:50.929Z,22.16
2017-03-05T04:37:19.175Z,22.18
2017-03-05T04:37:47.407Z,22.23
2017-03-05T04:38:15.687Z,22.18
2017-03-05T04:38:43.846Z,22.22
2017-03-05T04:39:12.037Z,22.23
2017-03-05T04:39:40.269Z,22.2
2017-03-05T04:40:08.509Z,22.26
2017-03-05T04:40:36.548Z,22.2
2017-03-05T04:41:04.911Z,22.26
2017-03-05T04:41:33.147Z,22.14
2017-03-05T04:42:01.079Z,22.18
2017-03-05T04:42:29.361Z,22.16
2017-03-05T04:42:57.583Z,22.16
2017-03-05T04:43:25.897Z,22.2
2017-03-05T04:43:53.992Z,22.15
2017-03-05T04:44:22.231Z,22.15
2017-03-05T04:44:50.505Z,22.12
2017-03-05T04:45:18.618Z,22.18
2017-03-05T04:45:46.827Z,22.15
2017-03-05T04:46:15.211Z,22.15
2017-03-05T04:46:43.430Z,22.14
2017-03-05T04:47:11.295Z,22.22
2017-03-05T04:47:39.536Z,22.2
2017-03-05T04:48:07.763Z,22.15
2017-03-05T04:48:36.034Z,22.16
2017-03-05T04:49:04.168Z,22.16
2017-03-05T04:49:32.309Z,22.15
2017-03-05T04:50:00.509Z,22.16
2017-03-05T04:50:28.702Z,22.11
2017-03-05T04:50:56.934Z,22.18
2017-03-05T04:51:25.025Z,22.16
2017-03-05T04:51:53.371Z,22.2
2017-03-05T04:52:21.475Z,22.16
2017-03-05T04:52:49.623Z,22.15
2017-03-05T04:53:17.885Z,22.2
2017-03-05T04:53:45.939Z,22.15
2017-03-05T04:54:14.207Z,22.15
2017-03-05T04:54:42.453Z,22.2
2017-03-05T04:55:10.737Z,22.16
2017-03-05T04:55:38.774Z,22.14
2017-03-05T04:56:06.812Z,22.24
2017-03-05T04:56:35.101Z,22.18
2017-03-05T04:57:03.340Z,22.16
2017-03-05T04:57:31.349Z,22.14
2017-03-05T04:57:59.573Z,22.15
2017-03-05T04:58:27.858Z,22.14
2017-03-05T04:58:56.123Z,22.12
2017-03-05T04:59:24.126Z,22.16
2017-03-05T04:59:52.494Z,22.22
2017-03-05T05:00:20.567Z,22.14
2017-03-05T05:00:48.699Z,22.2
2017-03-05T05:01:17.154Z,22.16
2017-03-05T05:01:45.361Z,22.16
2017-03-05T05:02:13.547Z,22.2
2017-03-05T05:02:41.737Z,22.22
2017-03-05T05:03:09.945Z,22.24
2017-03-05T05:03:38.209Z,22.22
2017-03-05T05:04:06.389Z,22.2
2017-03-05T05:04:34.475Z,22.16
2017-03-05T05:05:02.755Z,22.16
2017-03-05T05:05:30.901Z,22.15
2017-03-05T05:05:59.168Z,22.2
2017-03-05T05:06:27.259Z,22.24
2017-03-05T05:06:55.381Z,22.26
2017-03-05T05:07:23.629Z,22.24
2017-03-05T05:07:51.809Z,22.23
2017-03-05T05:08:20.133Z,22.24
2017-03-05T05:08:48.344Z,22.23
2017-03-05T05:09:16.449Z,22.26
2017-03-05T05:09:44.450Z,22.27
2017-03-05T05:10:12.632Z,22.18
2017-03-05T05:10:40.816Z,22.26
2017-03-05T05:11:09.154Z,22.27
2017-03-05T05:11:37.301Z,22.23
2017-03-05T05:12:05.789Z,22.33
2017-03-05T05:12:34.043Z,22.27
2017-03-05T05:13:02.064Z,22.39
2017-03-05T05:13:30.174Z,22.41
2017-03-05T05:13:58.290Z,22.29
2017-03-05T05:14:26.582Z,22.36
2017-03-05T05:14:54.686Z,22.38
2017-03-05T05:15:22.681Z,22.36
2017-03-05T05:15:50.710Z,22.33
2017-03-05T05:16:18.897Z,22.33
2017-03-05T05:16:47.063Z,22.42
2017-03-05T05:17:15.233Z,22.41
2017-03-05T05:17:43.357Z,22.42
2017-03-05T05:18:11.609Z,22.44
2017-03-05T05:18:39.775Z,22.42
2017-03-05T05:19:07.789Z,22.38
2017-03-05T05:19:35.983Z,22.36
2017-03-05T05:20:04.206Z,22.42
2017-03-05T05:20:32.225Z,22.41
2017-03-05T05:21:00.402Z,22.52
2017-03-05T05:21:28.699Z,22.46
2017-03-05T05:21:56.766Z,22.48
2017-03-05T05:22:25.072Z,22.42
2017-03-05T05:22:53.136Z,22.45
2017-03-05T05:23:21.329Z,22.48
2017-03-05T05:23:49.629Z,22.44
2017-03-05T05:24:17.835Z,22.48
2017-03-05T05:24:45.996Z,22.46
2017-03-05T05:25:14.203Z,22.55
2017-03-05T05:25:42.445Z,22.39
2017-03-05T05:26:10.546Z,22.54
2017-03-05T05:26:38.845Z,22.57
2017-03-05T05:27:06.833Z,22.59
2017-03-05T05:27:35.039Z,22.44
2017-03-05T05:28:03.284Z,22.48
2017-03-05T05:28:31.381Z,22.51
2017-03-05T05:28:59.463Z,22.49
2017-03-05T05:29:27.367Z,22.54
2017-03-05T05:29:55.551Z,22.52
2017-03-05T05:30:23.863Z,22.57
2017-03-05T05:30:52.038Z,22.49
2017-03-05T05:31:20.195Z,22.51
2017-03-05T05:31:48.361Z,22.51
2017-03-05T05:32:16.527Z,22.52
2017-03-05T05:32:44.869Z,22.52
2017-03-05T05:33:12.869Z,22.57
2017-03-05T05:33:40.964Z,22.57
2017-03-05T05:34:09.164Z,22.51
2017-03-05T05:34:37.311Z,22.6
2017-03-05T05:35:05.506Z,22.52
2017-03-05T05:35:33.689Z,22.52
2017-03-05T05:36:01.977Z,22.54
2017-03-05T05:36:30.211Z,22.52
2017-03-05T05:36:58.465Z,22.52
2017-03-05T05:37:26.776Z,22.54
2017-03-05T05:37:55.055Z,22.54
2017-03-05T05:38:23.297Z,22.57
2017-03-05T05:38:51.559Z,22.55
2017-03-05T05:39:19.683Z,22.55
2017-03-05T05:39:47.911Z,22.51
2017-03-05T05:40:16.100Z,22.52
2017-03-05T05:40:44.296Z,22.59
2017-03-05T05:41:12.386Z,22.61
2017-03-05T05:41:40.588Z,22.57
2017-03-05T05:42:08.786Z,22.51
2017-03-05T05:42:37.076Z,22.57
2017-03-05T05:43:05.315Z,22.52
2017-03-05T05:43:33.475Z,22.49
2017-03-05T05:44:01.685Z,22.52
2017-03-05T05:44:29.896Z,22.52
2017-03-05T05:44:58.184Z,22.52
2017-03-05T05:45:26.489Z,22.49
2017-03-05T05:45:54.679Z,22.51
2017-03-05T05:46:22.840Z,22.57
2017-03-05T05:46:51.144Z,22.57
2017-03-05T05:47:19.383Z,22.57
2017-03-05T05:47:47.539Z,22.54
2017-03-05T05:48:15.611Z,22.59
2017-03-05T05:48:43.721Z,22.52
2017-03-05T05:49:12.064Z,22.46
2017-03-05T05:49:40.369Z,22.51
2017-03-05T05:50:08.550Z,22.54
2017-03-05T05:50:36.732Z,22.46
2017-03-05T05:51:04.833Z,22.48
2017-03-05T05:51:33.264Z,22.52
2017-03-05T05:52:01.548Z,22.54
2017-03-05T05:52:29.550Z,22.51
2017-03-05T05:52:57.872Z,22.39
2017-03-05T05:53:26.085Z,22.48
2017-03-05T05:53:54.259Z,22.49
2017-03-05T05:54:22.666Z,22.49
2017-03-05T05:54:50.975Z,22.54
2017-03-05T05:55:19.205Z,22.42
2017-03-05T05:55:47.254Z,22.46
2017-03-05T05:56:15.344Z,22.41
2017-03-05T05:56:43.535Z,22.48
2017-03-05T05:57:11.756Z,22.42
2017-03-05T05:57:39.908Z,22.44
2017-03-05T05:58:08.228Z,22.48
2017-03-05T05:58:36.429Z,22.48
2017-03-05T05:59:04.641Z,22.45
2017-03-05T05:59:32.820Z,22.52
2017-03-05T06:00:00.904Z,22.49
2017-03-05T06:00:28.908Z,22.48
2017-03-05T06:00:56.983Z,22.54
2017-03-05T06:01:25.304Z,22.48
2017-03-05T06:01:53.681Z,22.55
2017-03-05T06:02:22.177Z,22.49
2017-03-05T06:02:50.315Z,22.46
2017-03-05T06:03:18.409Z,22.41
2017-03-05T06:03:46.695Z,22.51
2017-03-05T06:04:14.899Z,22.45
2017-03-05T06:04:43.215Z,22.51
2017-03-05T06:05:11.297Z,22.51
2017-03-05T06:05:39.425Z,22.45
2017-03-05T06:06:07.532Z,22.44